createdAt,value
2018-06-28T00:00:01.566Z,1.40
2018-06-28T00:01:01.525Z,1.20
2018-06-28T00:02:01.515Z,1.70
2018-06-28T00:03:01.504Z,1.40
2018-06-28T00:04:01.492Z,1.50
2018-06-28T00:05:01.504Z,1.40
2018-06-28T00:06:01.469Z,1.60
2018-06-28T00:07:01.460Z,1.70
2018-06-28T00:08:01.449Z,1.60
2018-06-28T00:09:01.436Z,1.50
2018-06-28T00:10:01.450Z,1.40
2018-06-28T00:11:01.427Z,2.00
2018-06-28T00:12:01.404Z,1.40
2018-06-28T00:13:01.392Z,2.30
2018-06-28T00:14:01.380Z,1.70
2018-06-28T00:15:01.393Z,1.30
2018-06-28T00:16:01.357Z,1.40
2018-06-28T00:17:01.346Z,1.50
2018-06-28T00:18:01.341Z,1.50
2018-06-28T00:19:01.325Z,1.80
2018-06-28T00:20:01.348Z,1.60
2018-06-28T00:21:01.302Z,1.40
2018-06-28T00:22:01.290Z,1.50
2018-06-28T00:23:01.280Z,1.60
2018-06-28T00:24:01.268Z,1.80
2018-06-28T00:25:01.281Z,1.70
2018-06-28T00:26:01.253Z,1.40
2018-06-28T00:27:01.235Z,1.60
2018-06-28T00:28:01.223Z,1.70
2018-06-28T00:29:01.215Z,1.70
2018-06-28T00:30:01.228Z,1.40
2018-06-28T00:31:01.190Z,1.70
2018-06-28T00:32:01.178Z,1.40
2018-06-28T00:33:01.168Z,1.60
2018-06-28T00:34:01.157Z,1.50
2018-06-28T00:35:01.170Z,1.40
2018-06-28T00:36:01.135Z,1.50
2018-06-28T00:37:01.125Z,1.60
2018-06-28T00:38:01.117Z,2.00
2018-06-28T00:39:01.101Z,1.50
2018-06-28T00:40:01.115Z,1.60
2018-06-28T00:41:01.091Z,1.60
2018-06-28T00:42:01.067Z,1.40
2018-06-28T00:43:01.056Z,1.50
2018-06-28T00:44:01.045Z,1.40
2018-06-28T00:45:01.058Z,1.50
2018-06-28T00:46:01.023Z,1.60
2018-06-28T00:47:01.011Z,1.50
2018-06-28T00:48:01.000Z,1.80
2018-06-28T00:49:00.989Z,1.80
2018-06-28T00:50:01.003Z,1.50
2018-06-28T00:51:00.976Z,1.60
2018-06-28T00:52:00.958Z,1.30
2018-06-28T00:53:00.947Z,1.80
2018-06-28T00:54:00.933Z,1.50
2018-06-28T00:55:00.947Z,1.70
2018-06-28T00:56:00.910Z,2.50
2018-06-28T00:57:00.900Z,1.70
2018-06-28T00:58:00.889Z,1.50
2018-06-28T00:59:00.881Z,1.50
2018-06-28T01:00:00.869Z,1.60
2018-06-28T01:01:00.880Z,1.30
2018-06-28T01:02:00.844Z,1.60
2018-06-28T01:03:00.833Z,1.60
2018-06-28T01:04:00.822Z,1.50
2018-06-28T01:05:00.811Z,1.60
2018-06-28T01:06:00.823Z,1.50
2018-06-28T01:07:00.810Z,1.50
2018-06-28T01:08:00.777Z,1.70
2018-06-28T01:09:00.768Z,1.40
2018-06-28T01:10:00.756Z,1.60
2018-06-28T01:11:00.767Z,1.50
2018-06-28T01:12:00.733Z,1.90
2018-06-28T01:13:00.723Z,1.50
2018-06-28T01:14:00.709Z,1.40
2018-06-28T01:15:00.700Z,2.00
2018-06-28T01:16:00.711Z,1.60
2018-06-28T01:17:00.678Z,1.50
2018-06-28T01:18:00.665Z,1.40
2018-06-28T01:19:00.653Z,1.60
2018-06-28T01:20:00.647Z,2.00
2018-06-28T01:21:00.656Z,1.60
2018-06-28T01:22:00.619Z,2.00
2018-06-28T01:23:00.627Z,1.50
2018-06-28T01:24:00.596Z,1.70
2018-06-28T01:25:00.587Z,1.60
2018-06-28T01:26:00.603Z,1.40
2018-06-28T01:27:00.564Z,1.50
2018-06-28T01:28:00.552Z,1.60
2018-06-28T01:29:00.541Z,1.60
2018-06-28T01:30:00.529Z,1.50
2018-06-28T01:31:00.542Z,1.50
2018-06-28T01:32:00.508Z,1.50
2018-06-28T01:33:00.505Z,1.30
2018-06-28T01:34:00.485Z,1.50
2018-06-28T01:35:00.473Z,1.40
2018-06-28T01:36:00.488Z,1.70
2018-06-28T01:37:00.454Z,1.60
2018-06-28T01:38:00.440Z,1.80
2018-06-28T01:39:00.429Z,1.60
2018-06-28T01:40:00.418Z,2.00
2018-06-28T01:41:00.430Z,1.60
2018-06-28T01:42:00.396Z,1.90
2018-06-28T01:43:00.384Z,1.50
2018-06-28T01:44:00.373Z,1.50
2018-06-28T01:45:00.362Z,1.90
2018-06-28T01:46:00.376Z,2.10
2018-06-28T01:47:00.338Z,1.50
2018-06-28T01:48:00.327Z,1.70
2018-06-28T01:49:00.317Z,1.60
2018-06-28T01:50:00.305Z,1.70
2018-06-28T01:51:00.319Z,1.40
2018-06-28T01:52:00.285Z,1.60
2018-06-28T01:53:00.333Z,1.80
2018-06-28T01:54:00.260Z,1.60
2018-06-28T01:55:00.249Z,1.70
2018-06-28T01:56:00.262Z,1.50
2018-06-28T01:57:00.225Z,1.50
2018-06-28T01:58:00.215Z,1.80
2018-06-28T01:59:00.204Z,1.90
2018-06-28T02:00:00.193Z,1.70
2018-06-28T02:01:00.207Z,1.60
2018-06-28T02:02:00.171Z,1.50
2018-06-28T02:03:00.159Z,1.70
2018-06-28T02:04:00.146Z,1.60
2018-06-28T02:05:00.136Z,1.70
2018-06-28T02:06:00.152Z,1.60
2018-06-28T02:07:00.114Z,1.60
2018-06-28T02:08:00.102Z,1.70
2018-06-28T02:09:00.092Z,1.70
2018-06-28T02:10:00.081Z,1.50
2018-06-28T02:11:00.093Z,1.60
2018-06-28T02:12:00.059Z,1.70
2018-06-28T02:13:00.046Z,1.90
2018-06-28T02:14:00.035Z,2.00
2018-06-28T02:15:00.027Z,1.90
2018-06-28T02:16:00.043Z,1.80
2018-06-28T02:17:00.001Z,1.60
2018-06-28T02:17:59.989Z,2.10
2018-06-28T02:18:59.979Z,1.90
2018-06-28T02:19:59.966Z,1.60
2018-06-28T02:20:59.979Z,1.40
2018-06-28T02:21:59.943Z,1.70
2018-06-28T02:22:59.932Z,1.60
2018-06-28T02:23:59.923Z,1.70
2018-06-28T02:24:59.910Z,1.40
2018-06-28T02:25:59.939Z,1.90
2018-06-28T02:26:59.887Z,1.50
2018-06-28T02:27:59.876Z,1.60
2018-06-28T02:28:59.866Z,1.90
2018-06-28T02:29:59.854Z,1.50
2018-06-28T02:30:59.866Z,1.60
2018-06-28T02:31:59.832Z,1.60
2018-06-28T02:32:59.822Z,1.70
2018-06-28T02:33:59.809Z,1.60
2018-06-28T02:34:59.798Z,1.60
2018-06-28T02:35:59.857Z,1.90
2018-06-28T02:36:59.778Z,1.70
2018-06-28T02:37:59.764Z,1.80
2018-06-28T02:38:59.753Z,1.60
2018-06-28T02:39:59.742Z,1.90
2018-06-28T02:40:59.754Z,1.50
2018-06-28T02:41:59.719Z,1.90
2018-06-28T02:42:59.709Z,1.80
2018-06-28T02:43:59.696Z,1.70
2018-06-28T02:44:59.685Z,1.60
2018-06-28T02:45:59.698Z,1.80
2018-06-28T02:46:59.663Z,2.10
2018-06-28T02:47:59.652Z,1.60
2018-06-28T02:48:59.639Z,1.40
2018-06-28T02:49:59.632Z,1.40
2018-06-28T02:50:59.619Z,1.50
2018-06-28T02:51:59.631Z,1.70
2018-06-28T02:52:59.594Z,1.70
2018-06-28T02:53:59.583Z,1.60
2018-06-28T02:54:59.577Z,1.50
2018-06-28T02:55:59.569Z,1.70
2018-06-28T02:56:59.572Z,1.50
2018-06-28T02:57:59.539Z,1.70
2018-06-28T02:58:59.527Z,1.60
2018-06-28T02:59:59.514Z,1.50
2018-06-28T03:00:59.506Z,1.60
2018-06-28T03:01:59.517Z,1.60
2018-06-28T03:02:59.480Z,1.50
2018-06-28T03:03:59.470Z,2.20
2018-06-28T03:04:59.458Z,1.50
2018-06-28T03:05:59.449Z,2.20
2018-06-28T03:06:59.461Z,1.70
2018-06-28T03:07:59.426Z,1.80
2018-06-28T03:08:59.413Z,1.90
2018-06-28T03:09:59.402Z,1.60
2018-06-28T03:10:59.391Z,1.70
2018-06-28T03:11:59.412Z,1.30
2018-06-28T03:12:59.369Z,1.70
2018-06-28T03:13:59.356Z,1.70
2018-06-28T03:14:59.345Z,1.60
2018-06-28T03:15:59.334Z,1.70
2018-06-28T03:16:59.348Z,1.90
2018-06-28T03:17:59.320Z,1.90
2018-06-28T03:18:59.300Z,1.70
2018-06-28T03:19:59.289Z,1.90
2018-06-28T03:20:59.279Z,1.70
2018-06-28T03:21:59.291Z,1.70
2018-06-28T03:22:59.255Z,1.70
2018-06-28T03:23:59.243Z,2.10
2018-06-28T03:24:59.234Z,1.70
2018-06-28T03:25:59.225Z,1.60
2018-06-28T03:26:59.234Z,1.60
2018-06-28T03:27:59.199Z,1.50
2018-06-28T03:28:59.187Z,1.60
2018-06-28T03:29:59.176Z,1.60
2018-06-28T03:30:59.267Z,1.70
2018-06-28T03:31:59.178Z,1.40
2018-06-28T03:32:59.142Z,1.70
2018-06-28T03:33:59.131Z,2.00
2018-06-28T03:34:59.119Z,1.60
2018-06-28T03:35:59.108Z,1.60
2018-06-28T03:36:59.121Z,1.70
2018-06-28T03:37:59.277Z,1.70
2018-06-28T03:38:59.079Z,1.70
2018-06-28T03:39:59.063Z,2.20
2018-06-28T03:40:59.052Z,1.60
2018-06-28T03:41:59.065Z,2.00
2018-06-28T03:42:59.031Z,1.70
2018-06-28T03:43:59.017Z,2.40
2018-06-28T03:44:59.008Z,1.60
2018-06-28T03:45:59.015Z,1.80
2018-06-28T03:46:59.008Z,1.70
2018-06-28T03:47:58.973Z,1.60
2018-06-28T03:48:58.960Z,2.00
2018-06-28T03:49:58.952Z,1.70
2018-06-28T03:50:58.939Z,1.50
2018-06-28T03:51:58.952Z,1.80
2018-06-28T03:52:58.919Z,1.70
2018-06-28T03:53:58.905Z,1.70
2018-06-28T03:54:58.895Z,1.60
2018-06-28T03:55:58.882Z,1.50
2018-06-28T03:56:58.896Z,1.70
2018-06-28T03:57:58.907Z,1.70
2018-06-28T03:58:58.849Z,1.80
2018-06-28T03:59:58.836Z,1.80
2018-06-28T04:00:58.826Z,1.70
2018-06-28T04:01:58.839Z,1.70
2018-06-28T04:02:58.805Z,1.70
2018-06-28T04:03:58.791Z,1.60
2018-06-28T04:04:58.781Z,1.80
2018-06-28T04:05:58.769Z,1.80
2018-06-28T04:06:58.782Z,1.70
2018-06-28T04:07:58.748Z,1.80
2018-06-28T04:08:58.736Z,1.80
2018-06-28T04:09:58.724Z,1.70
2018-06-28T04:10:58.711Z,1.50
2018-06-28T04:11:58.726Z,2.00
2018-06-28T04:12:58.692Z,1.80
2018-06-28T04:13:58.679Z,1.80
2018-06-28T04:14:58.667Z,1.80
2018-06-28T04:15:58.657Z,1.80
2018-06-28T04:16:58.669Z,1.60
2018-06-28T04:17:58.634Z,2.00
2018-06-28T04:18:58.622Z,2.10
2018-06-28T04:19:58.611Z,1.60
2018-06-28T04:20:58.601Z,1.70
2018-06-28T04:21:58.611Z,1.80
2018-06-28T04:22:58.576Z,2.00
2018-06-28T04:23:58.566Z,2.00
2018-06-28T04:24:58.555Z,1.50
2018-06-28T04:25:58.543Z,1.80
2018-06-28T04:26:58.533Z,1.80
2018-06-28T04:27:58.549Z,1.60
2018-06-28T04:28:58.508Z,1.80
2018-06-28T04:29:58.498Z,2.10
2018-06-28T04:30:58.487Z,1.50
2018-06-28T04:31:58.477Z,1.60
2018-06-28T04:32:58.489Z,1.80
2018-06-28T04:33:58.452Z,1.70
2018-06-28T04:34:58.442Z,1.80
2018-06-28T04:35:58.430Z,2.20
2018-06-28T04:36:58.424Z,2.20
2018-06-28T04:37:58.432Z,2.50
2018-06-28T04:38:58.396Z,2.00
2018-06-28T04:39:58.384Z,2.00
2018-06-28T04:40:58.408Z,2.10
2018-06-28T04:41:58.367Z,2.00
2018-06-28T04:42:58.375Z,2.40
2018-06-28T04:43:58.339Z,1.70
2018-06-28T04:44:58.329Z,1.80
2018-06-28T04:45:58.317Z,1.80
2018-06-28T04:46:58.308Z,1.80
2018-06-28T04:47:58.318Z,1.80
2018-06-28T04:48:58.286Z,1.90
2018-06-28T04:49:58.316Z,1.70
2018-06-28T04:50:58.261Z,1.60
2018-06-28T04:51:58.249Z,1.60
2018-06-28T04:52:58.261Z,1.60
2018-06-28T04:53:58.226Z,1.80
2018-06-28T04:54:58.215Z,1.90
2018-06-28T04:55:58.205Z,1.70
2018-06-28T04:56:58.193Z,1.80
2018-06-28T04:57:58.205Z,2.00
2018-06-28T04:58:58.171Z,2.10
2018-06-28T04:59:58.159Z,1.90
2018-06-28T05:00:58.149Z,1.80
2018-06-28T05:01:58.136Z,1.90
2018-06-28T05:02:58.150Z,1.60
2018-06-28T05:03:58.114Z,2.10
2018-06-28T05:04:58.108Z,1.70
2018-06-28T05:05:58.092Z,1.60
2018-06-28T05:06:58.124Z,1.80
2018-06-28T05:07:58.094Z,1.70
2018-06-28T05:08:58.060Z,2.10
2018-06-28T05:09:58.047Z,2.50
2018-06-28T05:10:58.036Z,2.40
2018-06-28T05:11:58.025Z,1.70
2018-06-28T05:12:58.036Z,1.90
2018-06-28T05:13:58.001Z,1.80
2018-06-28T05:14:57.990Z,1.60
2018-06-28T05:15:57.979Z,1.90
2018-06-28T05:16:57.968Z,1.60
2018-06-28T05:17:57.980Z,1.60
2018-06-28T05:18:57.946Z,1.70
2018-06-28T05:19:57.934Z,2.20
2018-06-28T05:20:57.923Z,2.00
2018-06-28T05:21:57.911Z,2.30
2018-06-28T05:22:57.925Z,2.00
2018-06-28T05:23:57.889Z,1.80
2018-06-28T05:24:57.878Z,2.00
2018-06-28T05:25:57.866Z,1.60
2018-06-28T05:26:57.855Z,1.70
2018-06-28T05:27:57.869Z,2.00
2018-06-28T05:28:57.833Z,1.80
2018-06-28T05:29:57.820Z,1.60
2018-06-28T05:30:57.813Z,1.80
2018-06-28T05:31:57.800Z,1.60
2018-06-28T05:32:57.811Z,2.10
2018-06-28T05:33:57.778Z,1.90
2018-06-28T05:34:57.773Z,1.60
2018-06-28T05:35:57.765Z,1.70
2018-06-28T05:36:57.742Z,2.00
2018-06-28T05:37:57.755Z,1.70
2018-06-28T05:38:57.721Z,2.10
2018-06-28T05:39:57.710Z,1.90
2018-06-28T05:40:57.698Z,1.50
2018-06-28T05:41:57.685Z,1.70
2018-06-28T05:42:57.700Z,1.70
2018-06-28T05:43:57.663Z,2.20
2018-06-28T05:44:57.651Z,1.60
2018-06-28T05:45:57.640Z,1.90
2018-06-28T05:46:57.695Z,1.80
2018-06-28T05:47:57.643Z,1.70
2018-06-28T05:48:57.613Z,1.70
2018-06-28T05:49:57.595Z,1.50
2018-06-28T05:50:57.585Z,1.60
2018-06-28T05:51:57.575Z,1.80
2018-06-28T05:52:57.586Z,1.80
2018-06-28T05:53:57.550Z,2.00
2018-06-28T05:54:57.539Z,2.00
2018-06-28T05:55:57.529Z,2.20
2018-06-28T05:56:57.517Z,1.90
2018-06-28T05:57:57.528Z,1.70
2018-06-28T05:58:57.494Z,1.90
2018-06-28T05:59:57.482Z,1.50
2018-06-28T06:00:57.472Z,1.80
2018-06-28T06:01:57.462Z,1.70
2018-06-28T06:02:57.472Z,1.90
2018-06-28T06:03:57.439Z,1.80
2018-06-28T06:04:57.426Z,1.80
2018-06-28T06:05:57.418Z,1.60
2018-06-28T06:06:57.403Z,1.90
2018-06-28T06:07:57.417Z,2.00
2018-06-28T06:08:57.381Z,1.80
2018-06-28T06:09:57.371Z,1.80
2018-06-28T06:10:57.360Z,1.90
2018-06-28T06:11:57.382Z,1.90
2018-06-28T06:12:57.350Z,1.80
2018-06-28T06:13:57.368Z,2.10
2018-06-28T06:14:57.313Z,1.60
2018-06-28T06:15:57.303Z,1.50
2018-06-28T06:16:57.292Z,1.60
2018-06-28T06:17:57.284Z,1.60
2018-06-28T06:18:57.292Z,1.60
2018-06-28T06:19:57.257Z,1.60
2018-06-28T06:20:57.245Z,1.80
2018-06-28T06:21:57.235Z,2.00
2018-06-28T06:22:57.225Z,1.80
2018-06-28T06:23:57.237Z,2.50
2018-06-28T06:24:57.201Z,1.70
2018-06-28T06:25:57.190Z,1.60
2018-06-28T06:26:57.178Z,1.70
2018-06-28T06:27:57.169Z,1.70
2018-06-28T06:28:57.179Z,1.70
2018-06-28T06:29:57.145Z,1.70
2018-06-28T06:30:57.134Z,1.70
2018-06-28T06:31:57.121Z,2.00
2018-06-28T06:32:57.113Z,1.70
2018-06-28T06:33:57.123Z,1.50
2018-06-28T06:34:57.089Z,1.60
2018-06-28T06:35:57.077Z,1.80
2018-06-28T06:36:57.065Z,1.80
2018-06-28T06:37:57.054Z,1.70
2018-06-28T06:38:57.068Z,1.70
2018-06-28T06:39:57.031Z,1.90
2018-06-28T06:40:57.021Z,1.80
2018-06-28T06:41:57.009Z,1.70
2018-06-28T06:42:56.999Z,1.70
2018-06-28T06:43:57.010Z,1.40
2018-06-28T06:44:56.976Z,2.80
2018-06-28T06:45:56.964Z,1.70
2018-06-28T06:46:56.952Z,1.80
2018-06-28T06:47:56.941Z,1.90
2018-06-28T06:48:56.954Z,1.50
2018-06-28T06:49:56.920Z,1.70
2018-06-28T06:50:56.908Z,1.80
2018-06-28T06:51:56.896Z,1.60
2018-06-28T06:52:56.886Z,1.60
2018-06-28T06:53:56.907Z,1.60
2018-06-28T06:54:56.862Z,1.40
2018-06-28T06:55:56.853Z,2.00
2018-06-28T06:56:56.841Z,2.00
2018-06-28T06:57:56.832Z,2.50
2018-06-28T06:58:56.843Z,1.70
2018-06-28T06:59:56.806Z,1.60
2018-06-28T07:00:56.795Z,1.80
2018-06-28T07:01:56.790Z,1.80
2018-06-28T07:02:56.773Z,1.60
2018-06-28T07:03:56.787Z,1.80
2018-06-28T07:04:56.751Z,1.70
2018-06-28T07:05:56.740Z,1.80
2018-06-28T07:06:56.729Z,1.70
2018-06-28T07:07:56.718Z,1.50
2018-06-28T07:08:56.731Z,1.60
2018-06-28T07:09:56.694Z,2.00
2018-06-28T07:10:56.723Z,1.50
2018-06-28T07:11:56.673Z,1.50
2018-06-28T07:12:56.665Z,2.40
2018-06-28T07:13:56.673Z,1.80
2018-06-28T07:14:56.638Z,1.80
2018-06-28T07:15:56.860Z,1.80
2018-06-28T07:16:56.617Z,1.50
2018-06-28T07:17:56.604Z,1.50
2018-06-28T07:18:56.619Z,1.60
2018-06-28T07:19:56.690Z,1.60
2018-06-28T07:20:56.572Z,1.70
2018-06-28T07:21:56.560Z,1.80
2018-06-28T07:22:56.554Z,1.60
2018-06-28T07:23:56.562Z,1.70
2018-06-28T07:24:56.526Z,1.70
2018-06-28T07:25:56.515Z,1.60
2018-06-28T07:26:56.507Z,1.70
2018-06-28T07:27:56.493Z,1.60
2018-06-28T07:28:56.507Z,1.70
2018-06-28T07:29:56.470Z,1.60
2018-06-28T07:30:56.460Z,2.00
2018-06-28T07:31:56.450Z,2.80
2018-06-28T07:32:56.464Z,1.50
2018-06-28T07:33:56.480Z,1.60
2018-06-28T07:34:56.438Z,1.60
2018-06-28T07:35:56.404Z,1.60
2018-06-28T07:36:56.395Z,1.40
2018-06-28T07:37:56.380Z,1.50
2018-06-28T07:38:56.393Z,2.00
2018-06-28T07:39:56.358Z,1.30
2018-06-28T07:40:56.347Z,2.00
2018-06-28T07:41:56.335Z,1.60
2018-06-28T07:42:56.406Z,3.50
2018-06-28T07:43:56.336Z,3.30
2018-06-28T07:44:56.301Z,3.50
2018-06-28T07:45:56.294Z,2.00
2018-06-28T07:46:56.346Z,1.90
2018-06-28T07:47:56.268Z,1.90
2018-06-28T07:48:56.280Z,1.80
2018-06-28T07:49:56.246Z,1.50
2018-06-28T07:50:56.235Z,1.70
2018-06-28T07:51:56.223Z,1.40
2018-06-28T07:52:56.215Z,3.30
2018-06-28T07:53:56.202Z,1.50
2018-06-28T07:54:56.213Z,2.30
2018-06-28T07:55:56.179Z,1.80
2018-06-28T07:56:56.169Z,2.30
2018-06-28T07:57:56.159Z,4.30
2018-06-28T07:58:56.149Z,6.50
2018-06-28T07:59:56.168Z,5.40
2018-06-28T08:00:56.123Z,4.90
2018-06-28T08:01:56.112Z,3.60
2018-06-28T08:02:56.100Z,7.10
2018-06-28T08:03:56.091Z,5.50
2018-06-28T08:04:56.100Z,16.50
2018-06-28T08:05:56.068Z,21.40
2018-06-28T08:06:56.057Z,20.30
2018-06-28T08:07:56.044Z,16.10
2018-06-28T08:08:56.035Z,11.60
2018-06-28T08:09:56.046Z,7.30
2018-06-28T08:10:56.010Z,8.40
2018-06-28T08:11:56.000Z,10.60
2018-06-28T08:12:55.988Z,8.10
2018-06-28T08:13:55.978Z,9.80
2018-06-28T08:14:55.989Z,9.70
2018-06-28T08:15:55.954Z,7.60
2018-06-28T08:16:55.942Z,6.00
2018-06-28T08:17:55.932Z,5.60
2018-06-28T08:18:55.923Z,5.60
2018-06-28T08:19:55.934Z,7.80
2018-06-28T08:20:55.898Z,7.90
2018-06-28T08:21:55.887Z,6.10
2018-06-28T08:22:55.876Z,7.10
2018-06-28T08:23:55.865Z,4.80
2018-06-28T08:24:55.877Z,9.40
2018-06-28T08:25:55.843Z,5.40
2018-06-28T08:26:55.875Z,6.60
2018-06-28T08:27:55.820Z,6.50
2018-06-28T08:28:55.809Z,6.40
2018-06-28T08:29:55.822Z,5.70
2018-06-28T08:30:55.787Z,8.60
2018-06-28T08:31:55.775Z,6.30
2018-06-28T08:32:55.765Z,6.00
2018-06-28T08:33:55.755Z,5.20
2018-06-28T08:34:55.767Z,6.50
2018-06-28T08:35:55.761Z,5.00
2018-06-28T08:36:55.719Z,5.70
2018-06-28T08:37:55.710Z,5.30
2018-06-28T08:38:55.697Z,5.90
2018-06-28T08:39:55.710Z,4.10
2018-06-28T08:40:55.675Z,5.70
2018-06-28T08:41:55.667Z,5.40
2018-06-28T08:42:55.653Z,5.60
2018-06-28T08:43:55.646Z,5.60
2018-06-28T08:44:55.659Z,4.40
2018-06-28T08:45:55.619Z,7.20
2018-06-28T08:46:55.608Z,5.20
2018-06-28T08:47:55.597Z,4.70
2018-06-28T08:48:55.646Z,5.20
2018-06-28T08:49:55.599Z,6.20
2018-06-28T08:50:55.564Z,9.60
2018-06-28T08:51:55.556Z,6.50
2018-06-28T08:52:55.541Z,4.50
2018-06-28T08:53:55.530Z,6.00
2018-06-28T08:54:55.545Z,7.30
2018-06-28T08:55:55.507Z,5.20
2018-06-28T08:56:55.497Z,6.60
2018-06-28T08:57:55.657Z,4.30
2018-06-28T08:58:55.474Z,4.30
2018-06-28T08:59:55.489Z,4.40
2018-06-28T09:00:55.451Z,4.90
2018-06-28T09:01:55.445Z,4.30
2018-06-28T09:02:55.430Z,2.80
2018-06-28T09:03:55.419Z,3.70
2018-06-28T09:04:55.470Z,3.50
2018-06-28T09:05:55.397Z,4.50
2018-06-28T09:06:55.384Z,6.00
2018-06-28T09:07:55.375Z,4.00
2018-06-28T09:08:55.362Z,5.10
2018-06-28T09:09:55.376Z,5.00
2018-06-28T09:10:55.340Z,5.00
2018-06-28T09:11:55.329Z,3.00
2018-06-28T09:12:55.319Z,6.30
2018-06-28T09:13:55.319Z,4.60
2018-06-28T09:14:55.319Z,3.00
2018-06-28T09:15:55.285Z,4.30
2018-06-28T09:16:55.272Z,3.70
2018-06-28T09:17:55.261Z,5.50
2018-06-28T09:18:55.250Z,3.10
2018-06-28T09:19:55.263Z,5.50
2018-06-28T09:20:55.227Z,4.00
2018-06-28T09:21:55.216Z,3.70
2018-06-28T09:22:55.269Z,4.20
2018-06-28T09:23:55.194Z,4.80
2018-06-28T09:24:55.207Z,7.00
2018-06-28T09:25:55.174Z,3.60
2018-06-28T09:26:55.166Z,3.80
2018-06-28T09:27:55.149Z,4.90
2018-06-28T09:28:55.138Z,2.70
2018-06-28T09:29:55.152Z,2.60
2018-06-28T09:30:55.119Z,4.40
2018-06-28T09:31:55.105Z,3.60
2018-06-28T09:32:55.094Z,5.10
2018-06-28T09:33:55.088Z,2.70
2018-06-28T09:34:55.097Z,3.80
2018-06-28T09:35:55.131Z,4.30
2018-06-28T09:36:55.049Z,3.70
2018-06-28T09:37:55.038Z,3.60
2018-06-28T09:38:55.027Z,2.60
2018-06-28T09:39:55.040Z,4.20
2018-06-28T09:40:55.005Z,5.10
2018-06-28T09:41:54.993Z,3.70
2018-06-28T09:42:54.982Z,3.70
2018-06-28T09:43:54.975Z,2.90
2018-06-28T09:44:54.962Z,3.30
2018-06-28T09:45:54.973Z,4.00
2018-06-28T09:46:54.937Z,4.80
2018-06-28T09:47:54.926Z,3.90
2018-06-28T09:48:54.916Z,4.30
2018-06-28T09:49:54.905Z,2.50
2018-06-28T09:50:54.916Z,3.20
2018-06-28T09:51:54.881Z,3.30
2018-06-28T09:52:54.871Z,3.70
2018-06-28T09:53:54.861Z,3.20
2018-06-28T09:54:54.946Z,3.40
2018-06-28T09:55:54.860Z,3.80
2018-06-28T09:56:54.824Z,3.60
2018-06-28T09:57:54.815Z,2.80
2018-06-28T09:58:54.803Z,2.40
2018-06-28T09:59:54.794Z,3.20
2018-06-28T10:00:54.805Z,2.80
2018-06-28T10:01:54.769Z,5.70
2018-06-28T10:02:54.759Z,3.90
2018-06-28T10:03:54.748Z,3.40
2018-06-28T10:04:54.736Z,3.40
2018-06-28T10:05:54.750Z,4.10
2018-06-28T10:06:54.785Z,5.70
2018-06-28T10:07:54.706Z,3.00
2018-06-28T10:08:54.694Z,3.30
2018-06-28T10:09:54.682Z,4.10
2018-06-28T10:10:54.693Z,4.10
2018-06-28T10:11:54.658Z,3.50
2018-06-28T10:12:54.646Z,3.30
2018-06-28T10:13:54.636Z,3.40
2018-06-28T10:14:54.625Z,3.40
2018-06-28T10:15:54.642Z,4.90
2018-06-28T10:16:54.603Z,2.80
2018-06-28T10:17:54.594Z,4.70
2018-06-28T10:18:54.581Z,3.50
2018-06-28T10:19:54.569Z,2.70
2018-06-28T10:20:54.582Z,3.10
2018-06-28T10:21:54.547Z,4.70
2018-06-28T10:22:54.538Z,4.00
2018-06-28T10:23:54.525Z,3.00
2018-06-28T10:24:54.520Z,3.00
2018-06-28T10:25:54.526Z,3.30
2018-06-28T10:26:54.490Z,2.50
2018-06-28T10:27:54.479Z,3.00
2018-06-28T10:28:54.468Z,2.90
2018-06-28T10:29:54.457Z,3.30
2018-06-28T10:30:54.470Z,4.00
2018-06-28T10:31:54.435Z,4.70
2018-06-28T10:32:54.424Z,2.50
2018-06-28T10:33:54.425Z,3.30
2018-06-28T10:34:54.402Z,2.80
2018-06-28T10:35:54.413Z,2.90
2018-06-28T10:36:54.378Z,3.40
2018-06-28T10:37:54.371Z,3.60
2018-06-28T10:38:54.357Z,3.20
2018-06-28T10:39:54.345Z,3.40
2018-06-28T10:40:54.412Z,2.80
2018-06-28T10:41:54.322Z,3.30
2018-06-28T10:42:54.312Z,3.00
2018-06-28T10:43:54.301Z,4.10
2018-06-28T10:44:54.289Z,4.20
2018-06-28T10:45:54.304Z,4.40
2018-06-28T10:46:54.268Z,4.10
2018-06-28T10:47:54.257Z,3.20
2018-06-28T10:48:54.244Z,3.00
2018-06-28T10:49:54.234Z,2.80
2018-06-28T10:50:54.248Z,3.00
2018-06-28T10:51:54.211Z,5.30
2018-06-28T10:52:54.200Z,2.40
2018-06-28T10:53:54.215Z,4.50
2018-06-28T10:54:54.178Z,3.10
2018-06-28T10:55:54.194Z,3.00
2018-06-28T10:56:54.155Z,5.70
2018-06-28T10:57:54.146Z,2.80
2018-06-28T10:58:54.133Z,4.70
2018-06-28T10:59:54.123Z,2.50
2018-06-28T11:00:54.134Z,2.80
2018-06-28T11:01:54.100Z,5.00
2018-06-28T11:02:54.087Z,2.90
2018-06-28T11:03:54.076Z,2.80
2018-06-28T11:04:54.066Z,3.30
2018-06-28T11:05:54.079Z,3.00
2018-06-28T11:06:54.044Z,3.00
2018-06-28T11:07:54.036Z,3.10
2018-06-28T11:08:54.022Z,3.00
2018-06-28T11:09:54.011Z,2.80
2018-06-28T11:10:54.042Z,3.00
2018-06-28T11:11:53.988Z,3.30
2018-06-28T11:12:53.977Z,4.20
2018-06-28T11:13:53.966Z,4.80
2018-06-28T11:14:53.955Z,3.20
2018-06-28T11:15:53.946Z,3.20
2018-06-28T11:16:53.958Z,5.80
2018-06-28T11:17:53.921Z,3.40
2018-06-28T11:18:53.910Z,3.70
2018-06-28T11:19:53.898Z,3.10
2018-06-28T11:20:53.889Z,3.40
2018-06-28T11:21:53.900Z,3.10
2018-06-28T11:22:53.866Z,3.80
2018-06-28T11:23:53.854Z,3.00
2018-06-28T11:24:53.843Z,4.10
2018-06-28T11:25:53.833Z,3.50
2018-06-28T11:26:53.845Z,3.00
2018-06-28T11:27:53.809Z,4.10
2018-06-28T11:28:53.797Z,4.30
2018-06-28T11:29:53.788Z,3.20
2018-06-28T11:30:53.777Z,3.80
2018-06-28T11:31:53.790Z,4.80
2018-06-28T11:32:53.754Z,3.00
2018-06-28T11:33:53.743Z,5.50
2018-06-28T11:34:53.730Z,3.90
2018-06-28T11:35:53.722Z,3.50
2018-06-28T11:36:53.733Z,3.40
2018-06-28T11:37:53.701Z,3.60
2018-06-28T11:38:53.685Z,2.90
2018-06-28T11:39:53.676Z,2.80
2018-06-28T11:40:53.664Z,4.50
2018-06-28T11:41:53.675Z,4.50
2018-06-28T11:42:53.641Z,2.70
2018-06-28T11:43:53.631Z,3.00
2018-06-28T11:44:53.618Z,3.50
2018-06-28T11:45:53.607Z,2.90
2018-06-28T11:46:53.620Z,2.20
2018-06-28T11:47:53.587Z,2.80
2018-06-28T11:48:53.573Z,2.60
2018-06-28T11:49:53.563Z,3.50
2018-06-28T11:50:53.551Z,4.80
2018-06-28T11:51:53.562Z,2.70
2018-06-28T11:52:53.532Z,3.50
2018-06-28T11:53:53.516Z,4.80
2018-06-28T11:54:53.506Z,2.60
2018-06-28T11:55:53.495Z,2.90
2018-06-28T11:56:53.508Z,2.80
2018-06-28T11:57:53.472Z,3.50
2018-06-28T11:58:53.461Z,3.00
2018-06-28T11:59:53.451Z,2.70
2018-06-28T12:00:53.438Z,2.50
2018-06-28T12:01:53.451Z,2.40
2018-06-28T12:02:53.415Z,2.40
2018-06-28T12:03:53.404Z,3.10
2018-06-28T12:04:53.394Z,2.60
2018-06-28T12:05:53.382Z,2.80
2018-06-28T12:06:53.394Z,2.30
2018-06-28T12:07:53.359Z,2.40
2018-06-28T12:08:53.351Z,2.30
2018-06-28T12:09:53.337Z,2.60
2018-06-28T12:10:53.326Z,2.30
2018-06-28T12:11:53.339Z,3.00
2018-06-28T12:12:53.302Z,2.60
2018-06-28T12:13:53.292Z,2.20
2018-06-28T12:14:53.281Z,2.40
2018-06-28T12:15:53.268Z,3.00
2018-06-28T12:16:53.281Z,2.20
2018-06-28T12:17:53.246Z,2.90
2018-06-28T12:18:53.236Z,3.60
2018-06-28T12:19:53.223Z,2.20
2018-06-28T12:20:53.213Z,3.40
2018-06-28T12:21:53.226Z,2.70
2018-06-28T12:22:53.191Z,2.10
2018-06-28T12:23:53.179Z,3.00
2018-06-28T12:24:53.167Z,2.20
2018-06-28T12:25:53.156Z,2.10
2018-06-28T12:26:53.168Z,3.50
2018-06-28T12:27:53.136Z,2.70
2018-06-28T12:28:53.122Z,2.40
2018-06-28T12:29:53.111Z,2.40
2018-06-28T12:30:53.099Z,2.80
2018-06-28T12:31:53.112Z,2.60
2018-06-28T12:32:53.077Z,2.70
2018-06-28T12:33:53.066Z,2.00
2018-06-28T12:34:53.058Z,3.90
2018-06-28T12:35:53.043Z,2.20
2018-06-28T12:36:53.057Z,2.20
2018-06-28T12:37:53.022Z,2.30
2018-06-28T12:38:53.013Z,2.60
2018-06-28T12:39:53.001Z,2.10
2018-06-28T12:40:52.988Z,3.30
2018-06-28T12:41:53.000Z,3.30
2018-06-28T12:42:52.966Z,2.90
2018-06-28T12:43:52.954Z,4.00
2018-06-28T12:44:52.943Z,3.40
2018-06-28T12:45:52.931Z,3.00
2018-06-28T12:46:52.945Z,2.30
2018-06-28T12:47:52.909Z,2.20
2018-06-28T12:48:52.899Z,2.20
2018-06-28T12:49:52.886Z,3.20
2018-06-28T12:50:52.877Z,2.10
2018-06-28T12:51:52.891Z,1.90
2018-06-28T12:52:52.853Z,2.50
2018-06-28T12:53:52.843Z,3.50
2018-06-28T12:54:52.832Z,1.90
2018-06-28T12:55:52.821Z,2.00
2018-06-28T12:56:52.833Z,1.90
2018-06-28T12:57:52.799Z,3.90
2018-06-28T12:58:52.789Z,3.50
2018-06-28T12:59:52.847Z,2.80
2018-06-28T13:00:52.765Z,2.20
2018-06-28T13:01:52.757Z,2.20
2018-06-28T13:02:52.768Z,1.80
2018-06-28T13:03:52.733Z,3.00
2018-06-28T13:04:52.725Z,3.30
2018-06-28T13:05:52.711Z,2.50
2018-06-28T13:06:52.701Z,2.20
2018-06-28T13:07:52.712Z,3.70
2018-06-28T13:08:52.677Z,2.10
2018-06-28T13:09:52.667Z,2.00
2018-06-28T13:10:52.657Z,3.60
2018-06-28T13:11:52.645Z,3.10
2018-06-28T13:12:52.657Z,2.00
2018-06-28T13:13:52.624Z,2.70
2018-06-28T13:14:52.612Z,1.80
2018-06-28T13:15:52.604Z,2.60
2018-06-28T13:16:52.593Z,2.20
2018-06-28T13:17:52.602Z,3.00